Time;durP1;ratioP1;P1;durP2;ratioP2;P2;SDS_P1;SDS_P2;PMS_P1;PMS_P2;Temp;Humidity;BMP_temperature;BMP_pressure;BME280_temperature;BME280_humidity;BME280_pressure;Samples;Min_cycle;Max_cycle;Signal;HPM_P1;HPM_P2
2022/02/06 00:02:05;;;;;;;14.10;5.70;;;;;;;2.95;79.58;100170.83;88202;1274;82134;-78
2022/02/06 00:04:14;;;;;;;11.50;5.30;;;;;;;2.92;79.48;100170.95;88184;1274;100089;-79
2022/02/06 00:06:24;;;;;;;13.70;5.50;;;;;;;2.89;79.38;100172.36;88210;1274;87657;-78
2022/02/06 00:08:38;;;;;;;13.10;5.70;;;;;;;2.84;79.36;100165.34;88172;1274;95154;-76
2022/02/06 00:10:51;;;;;;;14.00;5.30;;;;;;;2.78;79.22;100163.09;88178;1274;80526;-77
2022/02/06 00:13:03;;;;;;;10.50;4.60;;;;;;;2.72;79.26;100160.04;88199;1274;79435;-58
2022/02/06 00:15:18;;;;;;;12.10;4.50;;;;;;;2.68;79.42;100160.52;88131;1275;97716;-76
2022/02/06 00:17:30;;;;;;;11.90;4.50;;;;;;;2.64;79.46;100167.09;88174;1274;86959;-77
2022/02/06 00:19:43;;;;;;;14.40;5.80;;;;;;;2.60;79.45;100166.26;88198;1274;95492;-77
2022/02/06 00:21:52;;;;;;;10.60;4.90;;;;;;;2.62;79.66;100161.95;88200;1274;78499;-57
2022/02/06 00:24:04;;;;;;;14.10;4.90;;;;;;;2.64;79.73;100160.88;88169;1274;81256;-76
2022/02/06 00:29:09;;;;;;;12.50;5.60;;;;;;;2.72;79.68;100156.50;88242;1272;89367;-57
2022/02/06 00:31:24;;;;;;;18.50;5.90;;;;;;;2.73;79.68;100153.62;88108;1275;93283;-57
2022/02/06 00:33:41;;;;;;;16.70;6.70;;;;;;;2.72;79.51;100151.52;88088;1275;80215;-57
2022/02/06 00:36:03;;;;;;;15.10;6.90;;;;;;;2.68;79.39;100154.23;87880;1275;325570;-57
2022/02/06 00:38:25;;;;;;;15.60;6.60;;;;;;;2.64;79.24;100149.52;88096;1278;99322;-78
2022/02/06 00:41:01;;;;;;;13.00;6.60;;;;;;;2.60;79.28;100144.90;88110;1275;89231;-78
2022/02/06 00:43:10;;;;;;;15.20;7.30;;;;;;;2.58;79.30;100146.20;88090;1277;95169;-78
2022/02/06 00:45:19;;;;;;;15.90;6.40;;;;;;;2.59;79.46;100145.37;88111;1275;79469;-78
2022/02/06 00:47:29;;;;;;;15.80;5.90;;;;;;;2.62;79.46;100141.16;88111;1275;82344;-78
2022/02/06 00:49:40;;;;;;;15.80;6.40;;;;;;;2.65;79.51;100141.17;88117;1275;99699;-78
2022/02/06 00:51:55;;;;;;;16.30;7.20;;;;;;;2.68;79.42;100141.50;88103;1277;88230;-77
2022/02/06 00:54:02;;;;;;;;;;;;;;;2.70;79.34;100137.89;88120;1277;95856;-78
2022/02/06 00:56:12;;;;;;;14.60;6.30;;;;;;;2.70;79.42;100133.96;88105;1277;78539;-78
2022/02/06 00:58:21;;;;;;;13.50;6.00;;;;;;;2.71;79.36;100130.89;88133;1277;80785;-78
2022/02/06 01:00:30;;;;;;;15.60;6.20;;;;;;;2.69;79.06;100129.45;88104;1277;98388;-78
2022/02/06 01:02:39;;;;;;;15.50;6.70;;;;;;;2.65;79.12;100125.44;88093;1276;89473;-58
2022/02/06 01:04:48;;;;;;;15.80;6.20;;;;;;;2.61;79.12;100124.52;88102;1275;95497;-57
2022/02/06 01:06:58;;;;;;;12.00;6.00;;;;;;;2.57;79.22;100118.16;88127;1275;80171;-77
2022/02/06 01:09:08;;;;;;;14.60;6.10;;;;;;;2.54;79.32;100111.13;88109;1275;82933;-81
2022/02/06 01:11:17;;;;;;;12.30;5.70;;;;;;;2.53;79.23;100106.63;88144;1275;99456;-76
2022/02/06 01:13:31;;;;;;;13.00;5.60;;;;;;;2.50;79.30;100101.98;88111;1276;88033;-80
2022/02/06 01:15:47;;;;;;;13.20;6.10;;;;;;;2.52;79.20;100103.35;88113;1276;95283;-79
2022/02/06 01:18:01;;;;;;;14.30;5.50;;;;;;;2.52;79.20;100102.27;88041;1277;77305;-59
2022/02/06 01:20:20;;;;;;;10.60;5.40;;;;;;;2.53;79.32;100099.70;88120;1275;82725;-59
2022/02/06 01:22:32;;;;;;;14.50;6.10;;;;;;;2.54;79.22;100097.68;88123;1275;99835;-76
2022/02/06 01:24:45;;;;;;;11.20;5.80;;;;;;;2.53;79.13;100089.77;88153;1275;87809;-78
2022/02/06 01:27:00;;;;;;;13.50;6.20;;;;;;;2.49;79.14;100086.45;88087;1275;94495;-77
2022/02/06 01:29:19;;;;;;;11.10;5.50;;;;;;;2.45;79.19;100080.52;88097;1276;79082;-77
2022/02/06 01:31:42;;;;;;;14.10;5.40;;;;;;;2.41;79.09;100074.20;88102;1277;80491;-77
2022/02/06 01:33:56;;;;;;;12.80;5.70;;;;;;;2.38;79.08;100070.36;88119;1275;99632;-77
2022/02/06 01:36:13;;;;;;;10.50;5.30;;;;;;;2.39;79.20;100066.37;88125;1276;87592;-77
2022/02/06 01:38:27;;;;;;;12.00;5.00;;;;;;;2.38;79.16;100058.65;88150;1276;94553;-57
2022/02/06 01:40:53;;;;;;;12.00;5.00;;;;;;;2.41;79.22;100057.13;88148;1275;82904;-57
2022/02/06 01:43:05;;;;;;;9.70;5.20;;;;;;;2.47;79.21;100058.73;88116;1275;82615;-57
2022/02/06 01:45:33;;;;;;;12.40;5.70;;;;;;;2.51;79.09;100055.81;88120;1275;99893;-58
2022/02/06 02:00:42;;;;;;;13.80;5.60;;;;;;;2.41;79.10;100039.62;87869;1281;88391;-57
2022/02/06 02:03:02;;;;;;;18.40;6.10;;;;;;;2.38;79.01;100034.98;87891;1281;94412;-76
2022/02/06 02:08:04;;;;;;;15.50;6.00;;;;;;;2.39;78.86;100026.56;88052;1277;81539;-55
2022/02/06 02:15:42;;;;;;;13.40;6.70;;;;;;;2.50;79.01;100014.29;88083;1275;93651;-77
2022/02/06 02:26:11;;;;;;;14.00;6.40;;;;;;;2.45;78.78;99999.33;88107;1275;88405;-76
2022/02/06 02:28:54;;;;;;;12.90;6.20;;;;;;;2.43;78.59;99991.87;88138;1274;95589;-56
2022/02/06 02:31:18;;;;;;;15.60;6.30;;;;;;;2.35;78.75;99988.36;88082;1275;79611;-56
2022/02/06 02:42:52;;;;;;;11.90;6.80;;;;;;;2.32;78.54;99987.49;88102;1275;81606;-75
2022/02/06 02:44:43;;;;;;;12.40;6.20;;;;;;;2.44;78.98;99980.32;88068;1275;79052;-77
2022/02/06 02:46:41;;;;;;;14.50;6.40;;;;;;;2.54;79.06;99979.05;88076;1275;83193;-77
2022/02/06 02:48:55;;;;;;;13.10;5.40;;;;;;;2.61;79.14;99972.77;88121;1275;97482;-77
2022/02/06 02:51:07;;;;;;;12.40;5.60;;;;;;;2.63;78.79;99967.69;88084;1275;88073;-77
2022/02/06 02:53:22;;;;;;;12.50;5.60;;;;;;;2.63;78.88;99965.78;88098;1275;94627;-57
2022/02/06 02:55:44;;;;;;;13.20;5.90;;;;;;;2.62;78.99;99958.94;88078;1275;77431;-57
2022/02/06 02:57:59;;;;;;;11.20;5.60;;;;;;;2.58;78.91;99954.39;88110;1275;82575;-77
2022/02/06 03:00:22;;;;;;;10.50;5.40;;;;;;;2.55;78.91;99948.45;88066;1275;100082;-77
2022/02/06 03:02:31;;;;;;;9.70;4.70;;;;;;;2.50;78.93;99946.84;88088;1275;87391;-56
2022/02/06 03:04:40;;;;;;;10.30;4.80;;;;;;;2.48;78.93;99945.38;88069;1275;94814;-57
2022/02/06 03:06:48;;;;;;;10.80;4.60;;;;;;;2.51;78.93;99947.02;88104;1275;81146;-57
2022/02/06 03:08:59;;;;;;;9.10;4.60;;;;;;;2.54;78.80;99946.74;88090;1275;82759;-57
2022/02/06 03:11:10;;;;;;;11.50;5.10;;;;;;;2.60;78.81;99950.75;88074;1277;99706;-57
2022/02/06 03:13:22;;;;;;;10.70;5.10;;;;;;;2.62;78.88;99941.11;88103;1275;87645;-57
2022/02/06 03:15:42;;;;;;;11.30;5.60;;;;;;;2.66;78.86;99937.38;88088;1275;95263;-57
2022/02/06 03:17:58;;;;;;;10.20;4.90;;;;;;;2.68;78.85;99931.54;88054;1275;78811;-57
2022/02/06 03:20:11;;;;;;;8.50;4.70;;;;;;;2.67;78.75;99927.02;88092;1275;83660;-57
2022/02/06 03:22:34;;;;;;;11.60;5.10;;;;;;;2.60;78.68;99927.15;88084;1275;99541;-56
2022/02/06 03:24:43;;;;;;;10.00;5.00;;;;;;;2.55;78.83;99926.42;88091;1275;87122;-59
2022/02/06 03:26:55;;;;;;;11.00;4.90;;;;;;;2.50;78.75;99918.02;88067;1275;94560;-59
2022/02/06 03:29:04;;;;;;;10.10;5.10;;;;;;;2.45;78.93;99919.79;88062;1277;80016;-57
2022/02/06 03:31:14;;;;;;;9.90;4.70;;;;;;;2.45;79.07;99918.88;88094;1275;82908;-56
2022/02/06 03:33:23;;;;;;;11.30;5.20;;;;;;;2.46;79.22;99918.40;88099;1275;98058;-77
2022/02/06 03:35:33;;;;;;;9.10;5.20;;;;;;;2.45;79.22;99916.52;88119;1275;87948;-76
2022/02/06 03:37:42;;;;;;;7.90;4.20;;;;;;;2.47;79.29;99917.65;88122;1275;94988;-76
2022/02/06 03:39:53;;;;;;;8.00;4.40;;;;;;;2.44;79.36;99912.73;88083;1275;78511;-76
2022/02/06 03:42:09;;;;;;;11.20;4.90;;;;;;;2.44;79.49;99910.75;88131;1275;81881;-77
2022/02/06 03:44:24;;;;;;;9.30;4.60;;;;;;;2.43;79.48;99908.43;88098;1275;96695;-77
2022/02/06 03:46:39;;;;;;;14.10;5.70;;;;;;;2.36;79.65;99904.23;88192;1274;87832;-77
2022/02/06 03:48:54;;;;;;;12.70;5.40;;;;;;;2.34;79.64;99896.25;88090;1275;94492;-77
2022/02/06 03:51:06;;;;;;;9.70;4.90;;;;;;;2.29;79.82;99891.80;88092;1275;79624;-76
2022/02/06 03:53:18;;;;;;;9.30;4.50;;;;;;;2.27;79.82;99889.85;88127;1275;81687;-58
2022/02/06 03:55:30;;;;;;;13.70;5.10;;;;;;;2.25;80.07;99885.94;88078;1275;98694;-57
2022/02/06 03:57:39;;;;;;;9.90;5.00;;;;;;;2.21;80.31;99881.06;88064;1275;89462;-57
2022/02/06 03:59:48;;;;;;;9.50;5.20;;;;;;;2.21;80.38;99877.65;88080;1275;94304;-57
2022/02/06 04:01:58;;;;;;;10.70;4.80;;;;;;;2.21;80.56;99876.77;88101;1275;79464;-57
2022/02/06 04:04:06;;;;;;;10.00;5.10;;;;;;;2.23;80.50;99876.02;88130;1275;83151;-57
2022/02/06 04:06:15;;;;;;;9.30;4.90;;;;;;;2.26;80.54;99873.41;88094;1275;98933;-56
2022/02/06 04:08:26;;;;;;;10.20;5.10;;;;;;;2.26;80.53;99865.66;88090;1275;87098;-56
2022/02/06 04:10:42;;;;;;;13.10;6.20;;;;;;;2.20;80.50;99864.95;88118;1275;94491;-57
2022/02/06 04:12:55;;;;;;;11.50;5.70;;;;;;;2.17;80.67;99859.05;88099;1275;76698;-76
2022/02/06 04:15:07;;;;;;;12.90;5.60;;;;;;;2.17;80.25;99854.48;88123;1275;80759;-76
2022/02/06 04:17:21;;;;;;;9.40;5.30;;;;;;;2.11;80.41;99856.11;88104;1275;99572;-57
2022/02/06 04:19:33;;;;;;;11.10;5.50;;;;;;;2.06;80.28;99853.80;88098;1275;87438;-58
2022/02/06 04:21:42;;;;;;;10.00;5.20;;;;;;;2.00;80.35;99843.52;88075;1275;95507;-57
2022/02/06 04:23:51;;;;;;;14.90;5.40;;;;;;;1.98;80.57;99839.08;88106;1275;78744;-57
2022/02/06 04:26:00;;;;;;;12.30;5.00;;;;;;;1.99;80.60;99832.29;88112;1275;81353;-57
2022/02/06 04:28:12;;;;;;;10.20;5.80;;;;;;;1.97;80.59;99833.14;88078;1275;100177;-77
2022/02/06 04:30:22;;;;;;;10.00;5.30;;;;;;;2.00;80.58;99834.27;88117;1275;88617;-78
2022/02/06 04:32:32;;;;;;;9.80;5.20;;;;;;;2.08;80.69;99825.67;88113;1275;94026;-57
2022/02/06 04:34:42;;;;;;;10.70;5.70;;;;;;;2.11;80.59;99823.61;88092;1275;77757;-57
2022/02/06 04:36:58;;;;;;;10.90;5.80;;;;;;;2.12;80.65;99821.08;88130;1275;80633;-71
2022/02/06 04:39:27;;;;;;;10.40;5.80;;;;;;;2.10;80.73;99808.23;88139;1275;97838;-77
2022/02/06 04:41:51;;;;;;;8.50;5.70;;;;;;;2.11;80.70;99806.58;88120;1275;88780;-77
2022/02/06 04:49:20;;;;;;;8.70;5.60;;;;;;;2.05;80.64;99793.90;88092;1275;81501;-76
2022/02/06 04:52:06;;;;;;;9.60;5.90;;;;;;;2.06;80.65;99793.05;88221;1275;99322;-77
2022/02/06 05:14:47;;;;;;;9.30;5.00;;;;;;;2.12;80.57;99736.33;88079;1275;81177;-56
2022/02/06 05:19:57;;;;;;;9.10;4.40;;;;;;;2.15;80.63;99727.44;87940;1278;88777;-56
2022/02/06 05:25:15;;;;;;;8.50;4.20;;;;;;;2.23;80.52;99720.95;87859;1281;80451;-78
2022/02/06 05:27:51;;;;;;;10.20;4.20;;;;;;;2.30;80.52;99716.38;88088;1275;81374;-56
2022/02/06 05:30:05;;;;;;;9.40;4.10;;;;;;;2.36;80.52;99717.20;88068;1275;97998;-57
2022/02/06 05:32:19;;;;;;;;;;;;;;;2.37;80.46;99715.84;88122;1275;87941;-56
2022/02/06 05:34:30;;;;;;;10.60;4.30;;;;;;;2.38;80.31;99716.55;88085;1273;95210;-57
2022/02/06 05:36:39;;;;;;;8.50;3.90;;;;;;;2.36;80.14;99704.52;88067;1275;77557;-57
2022/02/06 05:38:49;;;;;;;11.00;4.10;;;;;;;2.33;80.01;99703.09;88091;1275;82133;-75
2022/02/06 05:41:01;;;;;;;8.60;3.70;;;;;;;2.31;79.89;99703.13;88070;1277;99424;-74
2022/02/06 05:43:10;;;;;;;8.10;3.60;;;;;;;2.27;79.96;99696.46;88085;1275;86712;-57
2022/02/06 05:45:22;;;;;;;7.80;3.90;;;;;;;2.24;79.93;99694.23;88064;1274;94321;-57
2022/02/06 05:47:33;;;;;;;8.40;3.90;;;;;;;2.24;79.95;99690.13;88056;1277;82054;-56
2022/02/06 05:49:42;;;;;;;7.70;3.60;;;;;;;2.27;79.76;99683.79;88080;1277;79882;-56
2022/02/06 05:51:54;;;;;;;7.60;3.70;;;;;;;2.34;79.87;99680.64;88090;1275;99650;-73
2022/02/06 05:54:03;;;;;;;5.90;3.70;;;;;;;2.39;79.71;99685.57;88080;1275;87697;-74
2022/02/06 05:56:15;;;;;;;7.60;3.50;;;;;;;2.42;79.67;99677.27;88076;1275;93590;-74
2022/02/06 05:58:27;;;;;;;6.90;3.60;;;;;;;2.43;79.40;99669.60;88063;1275;78038;-54
2022/02/06 06:00:36;;;;;;;8.00;4.00;;;;;;;2.44;79.54;99665.96;88099;1275;82059;-58
2022/02/06 06:02:44;;;;;;;7.60;3.60;;;;;;;2.42;79.15;99668.99;88112;1275;99017;-76
2022/02/06 06:04:56;;;;;;;11.00;4.10;;;;;;;2.41;79.27;99664.48;88094;1275;89330;-74
2022/02/06 06:07:09;;;;;;;7.80;3.90;;;;;;;2.38;79.18;99663.32;88055;1277;95051;-58
2022/02/06 06:09:17;;;;;;;7.20;3.20;;;;;;;2.38;79.20;99658.02;88046;1277;82225;-56
2022/02/06 06:11:26;;;;;;;10.40;3.80;;;;;;;2.35;79.19;99651.54;88069;1275;83063;-57
2022/02/06 06:13:35;;;;;;;5.60;3.50;;;;;;;2.38;79.02;99647.89;88080;1275;98866;-56
2022/02/06 06:15:44;;;;;;;7.00;3.40;;;;;;;2.42;79.15;99645.75;88085;1275;88882;-57
2022/02/06 06:17:52;;;;;;;9.00;3.30;;;;;;;2.46;78.87;99644.61;88051;1275;95755;-57
2022/02/06 06:20:03;;;;;;;6.80;3.50;;;;;;;2.51;78.85;99647.05;88079;1275;79804;-57
2022/02/06 06:22:19;;;;;;;8.80;3.50;;;;;;;2.54;78.77;99641.64;88059;1277;82813;-57
2022/02/06 06:24:34;;;;;;;7.80;4.00;;;;;;;2.55;78.99;99641.45;88104;1275;99481;-56
2022/02/06 06:26:43;;;;;;;7.70;3.40;;;;;;;2.59;78.67;99647.30;88077;1274;89202;-56
2022/02/06 06:28:55;;;;;;;8.80;4.20;;;;;;;2.58;78.28;99645.23;88067;1276;95143;-56
2022/02/06 06:31:04;;;;;;;7.20;4.10;;;;;;;2.56;78.34;99640.35;88052;1277;79244;-56
2022/02/06 06:33:14;;;;;;;7.30;3.60;;;;;;;2.54;78.09;99633.58;88084;1277;82952;-74
2022/02/06 06:35:23;;;;;;;8.10;3.90;;;;;;;2.51;77.83;99630.16;88077;1277;99932;-73
2022/02/06 06:37:32;;;;;;;8.50;5.00;;;;;;;2.49;77.96;99624.36;88087;1277;87670;-56
2022/02/06 06:39:43;;;;;;;11.00;4.20;;;;;;;2.47;78.08;99618.31;88017;1277;93814;-56
2022/02/06 06:41:55;;;;;;;9.20;3.30;;;;;;;2.47;78.31;99615.34;88065;1277;79296;-58
2022/02/06 06:44:04;;;;;;;7.30;3.80;;;;;;;2.48;77.99;99603.84;88055;1277;81540;-57
2022/02/06 06:46:13;;;;;;;6.70;3.50;;;;;;;2.54;78.03;99600.19;88024;1277;99221;-57
2022/02/06 06:48:21;;;;;;;9.40;4.10;;;;;;;2.60;77.90;99601.54;88085;1277;89054;-56
2022/02/06 06:50:34;;;;;;;9.60;3.60;;;;;;;2.65;77.91;99602.05;88037;1277;96136;-57
2022/02/06 06:52:42;;;;;;;7.70;3.50;;;;;;;2.68;78.05;99602.23;88044;1277;78168;-74
2022/02/06 06:55:00;;;;;;;9.90;3.90;;;;;;;2.72;77.74;99598.36;88053;1278;81636;-74
2022/02/06 06:57:16;;;;;;;9.00;3.60;;;;;;;2.74;77.70;99602.16;88040;1278;100181;-73
2022/02/06 06:59:46;;;;;;;10.00;3.70;;;;;;;2.72;77.62;99599.38;88086;1278;87850;-74
2022/02/06 07:02:15;;;;;;;7.50;3.60;;;;;;;2.70;77.37;99595.84;88047;1277;95028;-73
2022/02/06 07:04:24;;;;;;;9.50;4.00;;;;;;;2.68;77.29;99591.83;88059;1277;77386;-75
2022/02/06 07:06:33;;;;;;;8.60;3.70;;;;;;;2.66;77.38;99587.79;88074;1278;82190;-75
2022/02/06 07:08:42;;;;;;;7.70;3.80;;;;;;;2.63;77.34;99588.58;88092;1277;99268;-56
2022/02/06 07:10:55;;;;;;;7.40;3.70;;;;;;;2.65;77.38;99590.48;88056;1277;87447;-56
2022/02/06 07:13:03;;;;;;;7.30;3.10;;;;;;;2.69;77.68;99589.73;88076;1277;94973;-74
2022/02/06 07:15:12;;;;;;;6.20;3.20;;;;;;;2.72;77.64;99584.62;88037;1277;78857;-74
2022/02/06 07:17:24;;;;;;;7.70;3.60;;;;;;;2.75;77.91;99582.48;88110;1277;80887;-74
2022/02/06 07:19:33;;;;;;;6.50;3.50;;;;;;;2.78;78.10;99578.48;88073;1277;100014;-74
2022/02/06 07:21:44;;;;;;;7.60;3.70;;;;;;;2.78;78.32;99568.02;88073;1277;88407;-74
2022/02/06 07:23:56;;;;;;;7.40;3.60;;;;;;;2.79;78.41;99567.92;88056;1277;94507;-57
2022/02/06 07:26:14;;;;;;;7.00;4.00;;;;;;;2.79;78.42;99569.29;88062;1277;77655;-57
2022/02/06 07:28:23;;;;;;;6.60;3.30;;;;;;;2.76;78.32;99563.89;88110;1275;80053;-74
2022/02/06 07:30:32;;;;;;;7.50;3.70;;;;;;;2.75;78.36;99562.81;88064;1277;100437;-76
2022/02/06 07:32:44;;;;;;;7.40;3.60;;;;;;;2.74;78.37;99558.63;88113;1275;88936;-56
2022/02/06 07:34:56;;;;;;;6.80;3.10;;;;;;;2.75;78.42;99552.47;88102;1275;92978;-56
2022/02/06 07:37:06;;;;;;;7.90;2.80;;;;;;;2.78;78.41;99544.52;88091;1275;81804;-75
2022/02/06 07:39:15;;;;;;;7.10;3.30;;;;;;;2.83;78.21;99541.16;88253;1276;82582;-76
2022/02/06 07:41:24;;;;;;;7.30;3.30;;;;;;;2.89;78.32;99542.92;88232;1276;98438;-75
2022/02/06 07:43:37;;;;;;;8.40;3.50;;;;;;;2.95;78.41;99541.91;88112;1275;89378;-57
2022/02/06 07:45:46;;;;;;;6.50;3.20;;;;;;;3.03;78.16;99540.83;88100;1275;95585;-57
2022/02/06 07:47:58;;;;;;;6.70;4.00;;;;;;;3.05;78.08;99542.01;88072;1277;79160;-55
2022/02/06 07:50:09;;;;;;;8.80;3.90;;;;;;;3.05;78.24;99537.00;88069;1277;82569;-57
2022/02/06 07:52:20;;;;;;;6.80;3.40;;;;;;;3.04;78.28;99532.14;88082;1277;100242;-76
2022/02/06 07:54:29;;;;;;;8.40;3.50;;;;;;;3.03;78.36;99533.23;88111;1275;86363;-76
2022/02/06 07:56:38;;;;;;;8.10;3.60;;;;;;;3.00;78.45;99530.41;88064;1277;95694;-76
2022/02/06 07:58:47;;;;;;;7.30;3.30;;;;;;;3.00;78.52;99522.73;88074;1277;81501;-56
2022/02/06 08:00:56;;;;;;;6.70;3.20;;;;;;;3.03;78.68;99520.89;88104;1275;83144;-56
2022/02/06 08:03:08;;;;;;;5.80;3.20;;;;;;;3.07;78.50;99516.90;88112;1275;99890;-56
2022/02/06 08:05:18;;;;;;;6.70;3.40;;;;;;;3.12;78.65;99516.67;88067;1275;88465;-55
2022/02/06 08:07:27;;;;;;;7.00;3.70;;;;;;;3.17;78.49;99506.23;88124;1275;95555;-56
2022/02/06 08:12:04;;;;;;;7.00;3.90;;;;;;;3.28;78.41;99503.73;88102;1275;82064;-76
2022/02/06 08:14:48;;;;;;;9.00;4.10;;;;;;;3.30;78.35;99499.63;88091;1275;100358;-77
2022/02/06 08:16:42;;;;;;;8.50;3.90;;;;;;;3.34;78.33;99498.08;88103;1275;87839;-75
2022/02/06 08:18:55;;;;;;;7.20;3.30;;;;;;;3.38;78.51;99491.27;88095;1275;94990;-57
2022/02/06 08:21:03;;;;;;;5.90;3.70;;;;;;;3.38;78.32;99491.96;88089;1275;79000;-56
2022/02/06 08:23:14;;;;;;;6.80;3.70;;;;;;;3.39;78.25;99484.78;88122;1275;82690;-56
2022/02/06 08:25:24;;;;;;;7.70;3.40;;;;;;;3.44;78.41;99484.75;88092;1275;97876;-56
2022/02/06 08:27:33;;;;;;;9.80;3.80;;;;;;;3.55;78.64;99482.33;88104;1275;88089;-76
2022/02/06 08:29:45;;;;;;;6.60;3.30;;;;;;;3.64;78.70;99475.92;88105;1275;93826;-75
2022/02/06 08:31:54;;;;;;;6.70;3.40;;;;;;;3.72;78.56;99468.13;88066;1277;79610;-75
2022/02/06 08:34:06;;;;;;;8.00;3.80;;;;;;;3.81;78.66;99465.31;88078;1277;82870;-75
2022/02/06 08:36:15;;;;;;;9.10;3.60;;;;;;;3.90;78.57;99463.89;87821;1277;99712;-72
2022/02/06 08:38:24;;;;;;;8.00;3.50;;;;;;;4.03;78.64;99461.60;88170;1276;89394;-57
2022/02/06 08:40:33;;;;;;;6.20;3.40;;;;;;;4.10;78.55;99451.19;88075;1275;94122;-56
2022/02/06 08:42:43;;;;;;;6.80;3.60;;;;;;;4.08;77.94;99452.87;88136;1275;78702;-57
2022/02/06 08:44:53;;;;;;;6.20;3.70;;;;;;;4.02;78.13;99453.52;88115;1275;81185;-56
2022/02/06 08:47:02;;;;;;;6.80;3.50;;;;;;;3.99;78.16;99450.13;88104;1275;98814;-72
2022/02/06 08:49:12;;;;;;;7.90;3.60;;;;;;;3.93;78.38;99448.09;88110;1275;88738;-75
2022/02/06 08:51:21;;;;;;;7.30;3.50;;;;;;;3.90;78.46;99449.84;88109;1275;93243;-72
2022/02/06 08:53:30;;;;;;;6.10;3.20;;;;;;;3.90;78.49;99443.09;88102;1275;78872;-57
2022/02/06 08:55:39;;;;;;;6.60;3.00;;;;;;;3.96;78.83;99438.67;88094;1275;80913;-58
2022/02/06 08:57:50;;;;;;;6.80;3.10;;;;;;;4.00;78.67;99436.80;88104;1275;97853;-57
2022/02/06 09:00:00;;;;;;;9.40;3.90;;;;;;;4.01;78.67;99438.09;88126;1275;87869;-57
2022/02/06 09:02:12;;;;;;;7.60;3.30;;;;;;;4.07;78.84;99428.16;88100;1275;94632;-72
2022/02/06 09:04:21;;;;;;;5.60;3.40;;;;;;;4.08;78.70;99432.70;88073;1275;77475;-73
2022/02/06 09:06:31;;;;;;;6.40;3.20;;;;;;;4.11;78.89;99434.49;88128;1275;81950;-73
2022/02/06 09:08:40;;;;;;;7.60;3.40;;;;;;;4.11;78.90;99431.64;88194;1263;100112;-73
2022/02/06 09:10:49;;;;;;;6.50;3.40;;;;;;;4.07;78.85;99429.19;88133;1275;89704;-74
2022/02/06 09:12:58;;;;;;;7.00;3.40;;;;;;;4.03;78.75;99425.80;88121;1275;94247;-74
2022/02/06 09:15:14;;;;;;;8.30;4.20;;;;;;;4.01;78.79;99426.33;88080;1275;79079;-73
2022/02/06 09:17:27;;;;;;;6.50;3.50;;;;;;;4.00;78.96;99422.87;88116;1275;83279;-73
2022/02/06 09:19:39;;;;;;;6.90;4.40;;;;;;;3.95;78.96;99421.16;88107;1275;99433;-74
2022/02/06 09:21:50;;;;;;;6.50;3.30;;;;;;;3.97;79.02;99418.99;88138;1275;87807;-72
2022/02/06 09:24:00;;;;;;;8.30;3.50;;;;;;;4.00;79.03;99416.48;88077;1275;95370;-57
2022/02/06 09:26:09;;;;;;;6.70;4.00;;;;;;;4.02;79.12;99412.77;88088;1275;79491;-58
2022/02/06 09:28:20;;;;;;;5.80;3.40;;;;;;;4.05;79.16;99410.39;88130;1275;81534;-57
2022/02/06 09:30:30;;;;;;;7.20;3.80;;;;;;;4.11;79.23;99408.80;88126;1275;98885;-73
2022/02/06 09:36:56;;;;;;;6.50;3.20;;;;;;;4.07;79.28;99406.04;88088;1275;77752;-58
2022/02/06 09:39:12;;;;;;;7.40;3.60;;;;;;;4.04;79.16;99403.95;88124;1275;84115;-73
2022/02/06 09:41:21;;;;;;;5.80;3.30;;;;;;;4.03;79.14;99404.23;88109;1275;99252;-73
2022/02/06 09:43:32;;;;;;;4.20;2.70;;;;;;;4.00;79.35;99400.65;88100;1275;89174;-58
2022/02/06 09:45:43;;;;;;;7.10;4.10;;;;;;;4.01;79.41;99397.30;88096;1275;94646;-60
2022/02/06 09:47:58;;;;;;;6.10;3.40;;;;;;;4.08;79.46;99396.59;88086;1275;78934;-59
2022/02/06 09:50:06;;;;;;;;;;;;;;;4.13;79.58;99391.18;88111;1275;82152;-73
2022/02/06 09:52:25;;;;;;;5.80;3.10;;;;;;;4.17;79.75;99397.31;88118;1275;99883;-71
2022/02/06 09:54:34;;;;;;;4.50;2.80;;;;;;;4.22;79.76;99393.96;88089;1275;89102;-57
2022/02/06 09:56:46;;;;;;;5.40;3.00;;;;;;;4.21;80.16;99391.94;88077;1275;95884;-57
2022/02/06 09:59:00;;;;;;;5.40;3.60;;;;;;;4.28;80.00;99381.95;88118;1275;77192;-71
2022/02/06 10:01:11;;;;;;;5.50;3.20;;;;;;;4.31;80.15;99383.42;88123;1275;80554;-72
2022/02/06 10:03:22;;;;;;;5.80;3.60;;;;;;;4.30;80.04;99377.55;88108;1275;99772;-73
2022/02/06 10:05:35;;;;;;;6.10;3.30;;;;;;;4.25;80.12;99379.55;88099;1275;89548;-57
2022/02/06 10:07:53;;;;;;;6.40;3.60;;;;;;;4.25;80.16;99377.21;88131;1275;93944;-56
2022/02/06 10:10:07;;;;;;;5.70;3.30;;;;;;;4.23;80.31;99370.48;88112;1275;78830;-58
2022/02/06 10:12:21;;;;;;;5.40;3.50;;;;;;;4.16;80.65;99371.19;88104;1275;82847;-57
2022/02/06 10:14:32;;;;;;;5.40;3.30;;;;;;;4.15;80.94;99367.05;88102;1275;100145;-58
2022/02/06 10:16:42;;;;;;;5.10;3.10;;;;;;;4.15;80.75;99364.02;88103;1275;88598;-57
2022/02/06 10:18:53;;;;;;;5.50;3.40;;;;;;;4.20;81.05;99362.23;88111;1275;93467;-58
2022/02/06 10:21:04;;;;;;;7.00;2.90;;;;;;;4.21;81.44;99355.87;88072;1275;79441;-58
2022/02/06 10:23:30;;;;;;;6.40;3.20;;;;;;;4.23;81.36;99349.65;88121;1275;83111;-57
2022/02/06 10:25:48;;;;;;;7.70;3.50;;;;;;;4.31;81.58;99347.64;88089;1275;99506;-57
2022/02/06 10:28:08;;;;;;;5.60;3.90;;;;;;;4.33;81.61;99340.54;88078;1275;88657;-58
2022/02/06 10:30:37;;;;;;;8.00;5.00;;;;;;;4.36;81.54;99335.95;88091;1275;94011;-57
2022/02/06 10:32:48;;;;;;;6.80;4.20;;;;;;;4.34;81.45;99333.35;88115;1275;77159;-58
2022/02/06 10:35:11;;;;;;;4.80;3.40;;;;;;;4.31;81.63;99332.67;88127;1275;82810;-57
2022/02/06 10:37:22;;;;;;;7.50;3.60;;;;;;;4.28;81.83;99324.23;88117;1275;98464;-58
2022/02/06 10:39:33;;;;;;;5.20;3.70;;;;;;;4.28;81.92;99316.29;88117;1275;88795;-58
2022/02/06 10:41:50;;;;;;;5.20;3.30;;;;;;;4.27;81.90;99307.27;88099;1275;95589;-58
2022/02/06 10:44:02;;;;;;;6.30;3.30;;;;;;;4.25;82.06;99301.42;88115;1275;81676;-75
2022/02/06 10:46:15;;;;;;;6.70;3.60;;;;;;;4.31;82.12;99298.58;88150;1275;82608;-75
2022/02/06 10:48:27;;;;;;;6.20;3.10;;;;;;;4.39;82.25;99291.61;88104;1275;99006;-75
2022/02/06 10:50:40;;;;;;;6.70;4.10;;;;;;;4.44;81.92;99286.54;88124;1275;87718;-59
2022/02/06 10:52:49;;;;;;;5.40;3.20;;;;;;;4.49;81.81;99289.38;88096;1275;94170;-59
2022/02/06 10:55:01;;;;;;;4.70;3.00;;;;;;;4.51;81.87;99285.19;88092;1275;77247;-68
2022/02/06 10:57:12;;;;;;;7.70;3.80;;;;;;;4.51;81.79;99283.79;88135;1275;83437;-77
2022/02/06 10:59:22;;;;;;;4.30;3.00;;;;;;;4.50;81.77;99273.86;88128;1275;100851;-58
2022/02/06 11:01:31;;;;;;;5.70;3.30;;;;;;;4.51;81.73;99271.52;88091;1275;88477;-59
2022/02/06 11:03:42;;;;;;;4.90;3.20;;;;;;;4.49;81.56;99257.59;88098;1275;95079;-67
2022/02/06 11:06:06;;;;;;;5.80;3.30;;;;;;;4.48;81.65;99256.81;88077;1275;80831;-70
2022/02/06 11:08:29;;;;;;;4.40;3.00;;;;;;;4.47;81.75;99257.67;88084;1275;80852;-70
2022/02/06 11:10:39;;;;;;;5.60;3.20;;;;;;;4.48;81.97;99250.04;88114;1275;100040;-58
2022/02/06 11:12:56;;;;;;;6.30;3.20;;;;;;;4.53;81.87;99245.92;88087;1275;89448;-58
2022/02/06 11:15:26;;;;;;;7.10;3.70;;;;;;;4.58;81.93;99241.73;88089;1275;93528;-70
2022/02/06 11:17:37;;;;;;;5.90;3.30;;;;;;;4.55;81.96;99236.05;88108;1275;77993;-72
2022/02/06 11:20:04;;;;;;;5.30;3.10;;;;;;;4.49;82.07;99227.50;88085;1275;83325;-73
2022/02/06 11:22:16;;;;;;;6.30;4.10;;;;;;;4.41;82.15;99229.27;88086;1277;98455;-72
2022/02/06 11:24:25;;;;;;;5.40;3.50;;;;;;;4.36;82.26;99225.06;88117;1275;88380;-58
2022/02/06 11:26:39;;;;;;;5.20;3.10;;;;;;;4.27;82.55;99226.20;88064;1275;95469;-59
2022/02/06 11:28:53;;;;;;;6.60;3.20;;;;;;;4.26;82.58;99224.70;88105;1275;79919;-73
2022/02/06 11:31:03;;;;;;;5.50;2.90;;;;;;;4.26;82.65;99221.63;88135;1275;82258;-72
2022/02/06 11:33:13;;;;;;;4.80;3.20;;;;;;;4.25;82.75;99217.51;88098;1275;99267;-71
2022/02/06 11:35:26;;;;;;;6.10;3.30;;;;;;;4.27;82.65;99207.45;88112;1275;88917;-59
2022/02/06 11:45:41;;;;;;;5.00;3.30;;;;;;;4.44;82.49;99190.15;88091;1275;98908;-58
2022/02/06 11:47:58;;;;;;;7.40;3.80;;;;;;;4.39;82.65;99182.49;88074;1278;87714;-58
2022/02/06 11:50:13;;;;;;;6.20;3.40;;;;;;;4.39;82.71;99179.84;88115;1275;95021;-56
2022/02/06 11:52:23;;;;;;;4.90;3.30;;;;;;;4.38;82.48;99176.20;88117;1275;77706;-57
2022/02/06 11:54:36;;;;;;;5.60;2.80;;;;;;;4.40;82.72;99179.38;88091;1275;82610;-74
2022/02/06 11:56:46;;;;;;;4.70;2.80;;;;;;;4.37;82.52;99177.80;88089;1278;98733;-80